createdAt,value
2019-05-13T00:00:35.856Z,67.80
2019-05-13T00:03:05.084Z,68.10
2019-05-13T00:05:34.882Z,68.90
2019-05-13T00:08:04.138Z,68.90
2019-05-13T00:10:35.017Z,69.00
2019-05-13T00:13:04.780Z,69.40
2019-05-13T00:15:34.411Z,69.30
2019-05-13T00:18:04.088Z,69.50
2019-05-13T00:20:34.209Z,69.70
2019-05-13T00:23:04.116Z,71.10
2019-05-13T00:25:34.067Z,70.80
2019-05-13T00:28:04.247Z,70.90
2019-05-13T00:30:34.485Z,71.50
2019-05-13T00:33:04.060Z,71.70
2019-05-13T00:35:34.653Z,71.80
2019-05-13T00:38:04.253Z,72.20
2019-05-13T00:40:34.071Z,72.40
2019-05-13T00:43:04.080Z,72.50
2019-05-13T00:45:34.097Z,72.60
2019-05-13T00:48:04.465Z,73.10
2019-05-13T00:50:34.911Z,72.60
2019-05-13T00:53:24.897Z,72.80
2019-05-13T00:58:35.853Z,73.20
2019-05-13T01:01:05.370Z,73.50
2019-05-13T01:03:37.842Z,74.20
2019-05-13T01:06:07.440Z,74.30
2019-05-13T01:08:37.022Z,75.00
2019-05-13T01:11:06.723Z,75.00
2019-05-13T01:13:35.842Z,75.30
2019-05-13T01:16:05.328Z,75.20
2019-05-13T01:18:35.335Z,75.30
2019-05-13T01:21:04.652Z,75.50
2019-05-13T01:23:34.370Z,75.40
2019-05-13T01:26:04.062Z,75.70
2019-05-13T01:28:34.453Z,75.70
2019-05-13T01:31:13.403Z,75.90
2019-05-13T01:33:44.455Z,76.20
2019-05-13T01:36:13.525Z,76.50
2019-05-13T01:38:43.709Z,77.00
2019-05-13T01:41:13.658Z,77.00
2019-05-13T01:43:44.109Z,77.10
2019-05-13T01:46:13.728Z,76.90
2019-05-13T01:48:43.757Z,77.00
2019-05-13T01:51:13.836Z,77.30
2019-05-13T01:53:44.045Z,77.50
2019-05-13T01:56:34.281Z,77.90
2019-05-13T01:59:03.761Z,77.50
2019-05-13T02:01:33.703Z,77.10
2019-05-13T02:04:03.914Z,77.30
2019-05-13T02:06:44.127Z,77.60
2019-05-13T02:09:14.181Z,78.20
2019-05-13T02:11:46.230Z,78.30
2019-05-13T02:14:14.413Z,78.00
2019-05-13T02:16:44.598Z,78.00
2019-05-13T02:19:14.990Z,78.30
2019-05-13T02:21:44.147Z,78.70
2019-05-13T02:24:14.480Z,79.10
2019-05-13T02:26:44.031Z,79.40
2019-05-13T02:29:14.315Z,79.70
2019-05-13T02:31:50.955Z,80.10
2019-05-13T02:34:17.758Z,79.80
2019-05-13T02:36:46.955Z,79.60
2019-05-13T02:39:17.637Z,79.80
2019-05-13T02:41:46.926Z,80.10
2019-05-13T02:44:16.147Z,80.00
2019-05-13T02:46:45.657Z,79.90
2019-05-13T02:49:14.917Z,79.70
2019-05-13T02:51:43.989Z,79.70
2019-05-13T02:54:13.362Z,79.60
2019-05-13T02:56:42.939Z,79.30
2019-05-13T02:59:13.059Z,79.20
2019-05-13T03:01:45.553Z,79.90
2019-05-13T03:04:14.792Z,80.30
2019-05-13T03:06:44.030Z,80.50
2019-05-13T03:09:16.104Z,80.70
2019-05-13T03:11:45.455Z,80.90
2019-05-13T03:14:14.709Z,81.10
2019-05-13T03:16:52.514Z,81.20
2019-05-13T03:19:22.546Z,81.30
2019-05-13T03:21:52.884Z,81.60
2019-05-13T03:24:23.032Z,81.80
2019-05-13T03:26:53.380Z,81.90
2019-05-13T03:29:22.896Z,82.10
2019-05-13T03:31:55.752Z,82.40
2019-05-13T03:34:26.690Z,82.70
2019-05-13T03:36:56.765Z,82.80
2019-05-13T03:39:25.455Z,82.70
2019-05-13T03:41:57.316Z,83.30
2019-05-13T03:44:27.910Z,83.40
2019-05-13T03:46:58.895Z,84.10
2019-05-13T03:49:32.521Z,84.10
2019-05-13T03:52:03.081Z,84.60
2019-05-13T03:54:32.985Z,84.70
2019-05-13T03:57:03.570Z,84.70
2019-05-13T03:59:33.998Z,85.00
2019-05-13T04:02:03.730Z,85.70
2019-05-13T04:04:34.054Z,86.10
2019-05-13T04:07:03.737Z,85.60
2019-05-13T04:09:36.361Z,86.60
2019-05-13T04:12:14.050Z,86.30
2019-05-13T04:14:44.986Z,86.00
2019-05-13T04:17:14.760Z,86.50
2019-05-13T04:19:43.881Z,86.00
2019-05-13T04:22:13.336Z,85.70
2019-05-13T04:24:43.595Z,85.90
2019-05-13T04:27:13.572Z,85.90
2019-05-13T04:29:43.742Z,86.10
2019-05-13T04:32:13.386Z,87.10
2019-05-13T04:34:42.798Z,88.40
2019-05-13T04:37:13.512Z,88.20
2019-05-13T04:39:51.097Z,87.90
2019-05-13T04:42:15.236Z,85.90
2019-05-13T04:44:45.176Z,85.10
2019-05-13T04:47:14.954Z,85.40
2019-05-13T04:49:44.873Z,83.70
2019-05-13T04:52:23.961Z,83.20
2019-05-13T04:54:58.633Z,82.90
2019-05-13T04:57:29.109Z,80.70
2019-05-13T05:00:22.536Z,80.70
2019-05-13T05:03:22.924Z,81.70
2019-05-13T05:06:12.117Z,81.50
2019-05-13T05:09:22.544Z,81.70
2019-05-13T05:12:12.326Z,79.00
2019-05-13T05:15:08.404Z,78.80
2019-05-13T05:18:14.691Z,75.40
2019-05-13T05:20:57.927Z,75.80
2019-05-13T05:23:52.852Z,74.30
2019-05-13T05:27:01.461Z,72.20
2019-05-13T05:29:51.633Z,74.40
2019-05-13T05:32:44.985Z,71.20
2019-05-13T05:35:52.008Z,71.50
2019-05-13T05:38:44.526Z,68.90
2019-05-13T05:41:18.251Z,68.90
2019-05-13T05:43:48.835Z,69.90
2019-05-13T05:46:23.781Z,67.00
2019-05-13T05:48:56.118Z,66.30
2019-05-13T05:51:26.062Z,67.00
2019-05-13T05:54:02.450Z,64.30
2019-05-13T05:56:34.269Z,65.10
2019-05-13T05:59:04.732Z,65.10
2019-05-13T06:01:52.347Z,62.70
2019-05-13T06:04:26.800Z,64.90
2019-05-13T06:06:57.609Z,63.00
2019-05-13T06:09:42.319Z,61.30
2019-05-13T06:12:13.909Z,61.80
2019-05-13T06:14:45.526Z,58.80
2019-05-13T06:17:15.254Z,61.30
2019-05-13T06:19:45.445Z,57.80
2019-05-13T06:22:21.625Z,57.40
2019-05-13T06:24:52.147Z,59.10
2019-05-13T06:27:22.469Z,56.90
2019-05-13T06:29:53.117Z,51.70
2019-05-13T06:35:18.146Z,55.00
2019-05-13T06:37:52.104Z,49.90
2019-05-13T06:40:22.514Z,50.80
2019-05-13T06:42:52.403Z,49.00
2019-05-13T06:45:21.925Z,49.40
2019-05-13T06:47:52.251Z,46.10
2019-05-13T06:50:22.063Z,47.00
2019-05-13T06:52:58.141Z,47.80
2019-05-13T06:55:28.224Z,48.60
2019-05-13T06:58:01.991Z,49.80
2019-05-13T07:00:34.960Z,49.40
2019-05-13T07:03:08.160Z,49.60
2019-05-13T07:05:37.257Z,49.90
2019-05-13T07:08:18.707Z,50.70
2019-05-13T07:10:51.396Z,53.60
2019-05-13T07:13:29.083Z,49.80
2019-05-13T07:16:18.852Z,50.80
2019-05-13T07:19:02.658Z,48.90
2019-05-13T07:21:38.466Z,50.30
2019-05-13T07:24:21.454Z,46.50
2019-05-13T07:26:53.785Z,47.10
2019-05-13T07:29:28.906Z,43.40
2019-05-13T07:32:28.072Z,41.80
2019-05-13T07:34:59.240Z,42.80
2019-05-13T07:37:31.848Z,40.00
2019-05-13T07:40:02.708Z,41.10
2019-05-13T07:42:33.505Z,41.30
2019-05-13T07:45:04.416Z,38.80
2019-05-13T07:47:56.139Z,39.00
2019-05-13T07:50:26.452Z,41.00
2019-05-13T07:53:02.083Z,38.40
2019-05-13T07:55:32.539Z,36.10
2019-05-13T07:58:02.499Z,36.80
2019-05-13T08:00:34.004Z,34.10
2019-05-13T08:03:12.278Z,35.20
2019-05-13T08:05:42.610Z,34.80
2019-05-13T08:08:12.100Z,34.00
2019-05-13T08:10:43.217Z,33.20
2019-05-13T08:13:14.511Z,35.00
2019-05-13T08:15:44.646Z,34.20
2019-05-13T08:18:16.186Z,33.40
2019-05-13T08:20:47.927Z,34.60
2019-05-13T08:23:34.386Z,33.90
2019-05-13T08:26:06.776Z,36.50
2019-05-13T08:29:03.151Z,33.40
2019-05-13T08:31:42.475Z,34.60
2019-05-13T08:34:13.660Z,34.90
2019-05-13T08:36:44.769Z,35.20
2019-05-13T08:39:37.934Z,35.50
2019-05-13T08:42:15.031Z,34.40
2019-05-13T08:47:57.685Z,33.70
2019-05-13T08:50:36.481Z,31.40
2019-05-13T08:53:06.489Z,32.70
2019-05-13T08:55:36.676Z,35.70
2019-05-13T08:58:22.122Z,32.00
2019-05-13T09:00:53.843Z,33.60
2019-05-13T09:03:24.650Z,33.60
2019-05-13T09:06:03.251Z,33.30
2019-05-13T09:08:34.620Z,33.20
2019-05-13T09:11:03.805Z,33.80
2019-05-13T09:13:33.283Z,35.00
2019-05-13T09:16:04.764Z,31.80
2019-05-13T09:18:34.153Z,33.40
2019-05-13T09:21:03.216Z,31.50
2019-05-13T09:23:32.613Z,32.00
2019-05-13T09:26:02.632Z,34.20
2019-05-13T09:28:33.049Z,32.50
2019-05-13T09:31:02.495Z,34.00
2019-05-13T09:33:38.937Z,34.20
2019-05-13T09:36:08.201Z,34.30
2019-05-13T09:38:38.154Z,31.80
2019-05-13T09:41:07.778Z,32.10
2019-05-13T09:43:37.621Z,33.10
2019-05-13T09:46:07.871Z,33.30
2019-05-13T09:48:37.689Z,31.80
2019-05-13T09:51:08.234Z,30.70
2019-05-13T09:53:37.904Z,31.80
2019-05-13T09:56:07.179Z,32.70
2019-05-13T09:58:36.395Z,33.30
2019-05-13T10:01:05.762Z,32.10
2019-05-13T10:03:52.019Z,31.30
2019-05-13T10:06:06.393Z,31.30
2019-05-13T10:08:36.756Z,33.50
2019-05-13T10:11:05.736Z,31.90
2019-05-13T10:13:35.367Z,29.90
2019-05-13T10:16:04.393Z,32.90
2019-05-13T10:18:33.407Z,27.40
2019-05-13T10:21:05.171Z,30.00
2019-05-13T10:23:34.538Z,30.90
2019-05-13T10:26:06.453Z,31.00
2019-05-13T10:28:35.916Z,30.90
2019-05-13T10:31:06.552Z,31.50
2019-05-13T10:33:35.899Z,30.70
2019-05-13T10:36:05.311Z,30.10
2019-05-13T10:38:34.429Z,31.20
2019-05-13T10:41:03.959Z,31.50
2019-05-13T10:43:39.086Z,33.20
2019-05-13T10:46:04.255Z,29.20
2019-05-13T10:48:33.702Z,31.90
2019-05-13T10:51:03.098Z,30.40
2019-05-13T10:53:35.569Z,32.20
2019-05-13T10:56:04.768Z,32.60
2019-05-13T10:58:34.582Z,29.70
2019-05-13T11:01:04.472Z,32.90
2019-05-13T11:03:33.785Z,31.60
2019-05-13T11:06:03.933Z,29.00
2019-05-13T11:08:33.647Z,30.90
2019-05-13T11:11:03.509Z,32.50
2019-05-13T11:13:50.702Z,31.20
2019-05-13T11:16:05.476Z,31.00
2019-05-13T11:18:41.435Z,34.10
2019-05-13T11:21:13.082Z,30.80
2019-05-13T11:23:42.323Z,31.80
2019-05-13T11:26:13.030Z,30.90
2019-05-13T11:28:43.002Z,28.80
2019-05-13T11:31:13.491Z,31.50
2019-05-13T11:33:43.269Z,31.60
2019-05-13T11:36:18.559Z,29.80
2019-05-13T11:38:43.814Z,29.50
2019-05-13T11:41:13.654Z,32.20
2019-05-13T11:43:43.178Z,30.10
2019-05-13T11:46:13.090Z,30.50
2019-05-13T11:48:42.758Z,30.40
2019-05-13T11:51:13.039Z,30.60
2019-05-13T11:54:14.045Z,30.10
2019-05-13T11:56:48.452Z,26.40
2019-05-13T11:59:14.065Z,30.60
2019-05-13T12:01:43.711Z,28.50
2019-05-13T12:04:12.989Z,28.70
2019-05-13T12:06:47.984Z,28.00
2019-05-13T12:09:17.816Z,30.40
2019-05-13T12:11:47.396Z,33.30
2019-05-13T12:14:39.155Z,25.40
2019-05-13T12:17:02.276Z,27.70
2019-05-13T12:19:31.698Z,28.30
2019-05-13T12:22:03.958Z,29.20
2019-05-13T12:24:33.165Z,30.20
2019-05-13T12:27:03.655Z,27.60
2019-05-13T12:29:54.364Z,25.40
2019-05-13T12:32:24.067Z,26.60
2019-05-13T12:34:54.330Z,29.30
2019-05-13T12:37:26.024Z,24.50
2019-05-13T12:39:55.310Z,24.60
2019-05-13T12:42:25.581Z,26.70
2019-05-13T12:45:16.191Z,30.00
2019-05-13T12:47:46.995Z,27.00
2019-05-13T12:50:18.405Z,27.30
2019-05-13T12:53:08.532Z,27.90
2019-05-13T12:55:37.882Z,25.80
2019-05-13T12:58:07.949Z,27.90
2019-05-13T13:00:43.385Z,23.10
2019-05-13T13:03:13.588Z,25.70
2019-05-13T13:05:43.481Z,25.00
2019-05-13T13:08:37.929Z,24.40
2019-05-13T13:10:53.350Z,26.80
2019-05-13T13:13:23.161Z,24.60
2019-05-13T13:16:18.695Z,24.20
2019-05-13T13:18:52.150Z,25.70
2019-05-13T13:21:24.414Z,24.70
2019-05-13T13:24:04.051Z,27.80
2019-05-13T13:26:33.325Z,23.50
2019-05-13T13:29:01.332Z,26.10
2019-05-13T13:31:43.460Z,25.80
2019-05-13T13:34:33.970Z,22.60
2019-05-13T13:37:05.112Z,23.50
2019-05-13T13:40:03.262Z,22.90
2019-05-13T13:42:33.008Z,23.60
2019-05-13T13:45:06.028Z,24.40
2019-05-13T13:47:37.973Z,25.30
2019-05-13T13:50:08.344Z,22.50
2019-05-13T13:52:38.243Z,23.30
2019-05-13T13:55:15.932Z,23.20
2019-05-13T13:57:44.952Z,24.10
2019-05-13T14:00:31.884Z,23.50
2019-05-13T14:05:43.356Z,23.20
2019-05-13T14:08:13.452Z,23.80
2019-05-13T14:10:54.948Z,24.20
2019-05-13T14:13:35.184Z,22.20
2019-05-13T14:16:22.490Z,21.40
2019-05-13T14:18:45.960Z,24.10
2019-05-13T14:21:16.898Z,24.00
2019-05-13T14:23:46.657Z,21.80
2019-05-13T14:26:27.612Z,24.70
2019-05-13T14:28:58.195Z,22.50
2019-05-13T14:31:27.902Z,25.30
2019-05-13T14:33:57.652Z,22.50
2019-05-13T14:36:27.418Z,21.80
2019-05-13T14:39:02.812Z,24.00
2019-05-13T14:41:33.095Z,23.00
2019-05-13T14:44:03.663Z,23.80
2019-05-13T14:46:47.678Z,22.10
2019-05-13T14:49:14.875Z,22.60
2019-05-13T14:51:44.210Z,22.70
2019-05-13T14:54:17.687Z,26.60
2019-05-13T14:56:52.525Z,22.90
2019-05-13T14:59:22.114Z,21.30
2019-05-13T15:02:11.933Z,24.40
2019-05-13T15:04:42.070Z,23.40
2019-05-13T15:07:12.577Z,22.60
2019-05-13T15:09:42.239Z,24.20
2019-05-13T15:12:11.844Z,22.90
2019-05-13T15:14:45.658Z,23.30
2019-05-13T15:17:25.241Z,22.30
2019-05-13T15:19:55.401Z,23.20
2019-05-13T15:22:24.978Z,23.90
2019-05-13T15:24:54.250Z,24.90
2019-05-13T15:27:24.491Z,21.30
2019-05-13T15:30:18.083Z,23.20
2019-05-13T15:33:13.150Z,22.70
2019-05-13T15:35:43.264Z,21.20
2019-05-13T15:38:13.025Z,23.40
2019-05-13T15:40:42.713Z,22.80
2019-05-13T15:43:12.920Z,20.90
2019-05-13T15:45:46.473Z,20.40
2019-05-13T15:48:15.821Z,20.00
2019-05-13T15:50:46.658Z,23.20
2019-05-13T15:56:14.495Z,23.30
2019-05-13T15:58:44.496Z,23.20
2019-05-13T16:03:55.675Z,24.20
2019-05-13T16:06:28.841Z,23.90
2019-05-13T16:09:02.754Z,24.20
2019-05-13T16:11:32.740Z,24.00
2019-05-13T16:14:23.146Z,23.90
2019-05-13T16:16:57.832Z,22.70
2019-05-13T16:19:32.386Z,24.90
2019-05-13T16:22:01.349Z,24.40
2019-05-13T16:24:32.252Z,23.80
2019-05-13T16:27:02.540Z,24.80
2019-05-13T16:29:33.569Z,27.10
2019-05-13T16:32:28.492Z,25.50
2019-05-13T16:34:58.090Z,25.20
2019-05-13T16:37:28.098Z,25.70
2019-05-13T16:40:04.729Z,26.30
2019-05-13T16:42:33.998Z,25.70
2019-05-13T16:45:03.214Z,27.10
2019-05-13T16:48:00.774Z,26.60
2019-05-13T16:50:31.120Z,26.90
2019-05-13T16:53:01.705Z,26.90
2019-05-13T16:55:42.285Z,27.40
2019-05-13T16:58:12.744Z,26.80
2019-05-13T17:00:42.808Z,27.30
2019-05-13T17:03:11.841Z,26.30
2019-05-13T17:05:42.032Z,27.00
2019-05-13T17:08:11.018Z,27.80
2019-05-13T17:10:45.095Z,27.90
2019-05-13T17:13:14.319Z,27.80
2019-05-13T17:18:45.306Z,27.80
2019-05-13T17:21:14.632Z,28.50
2019-05-13T17:23:43.655Z,27.30
2019-05-13T17:26:12.584Z,28.10
2019-05-13T17:29:02.202Z,27.10
2019-05-13T17:31:32.566Z,27.40
2019-05-13T17:34:01.741Z,27.90
2019-05-13T17:36:32.532Z,27.40
2019-05-13T17:39:01.751Z,28.50
2019-05-13T17:41:46.914Z,27.40
2019-05-13T17:44:15.831Z,26.60
2019-05-13T17:46:44.988Z,27.80
2019-05-13T17:49:24.115Z,27.90
2019-05-13T17:51:53.604Z,28.80
2019-05-13T17:54:22.496Z,28.50
2019-05-13T17:56:52.013Z,28.20
2019-05-13T17:59:21.833Z,28.50
2019-05-13T18:02:11.611Z,29.20
2019-05-13T18:04:41.544Z,28.90
2019-05-13T18:07:12.176Z,28.90
2019-05-13T18:09:45.828Z,28.90
2019-05-13T18:12:41.974Z,29.40
2019-05-13T18:15:11.688Z,28.40
2019-05-13T18:17:42.008Z,28.90
2019-05-13T18:20:12.033Z,29.00
2019-05-13T18:22:42.125Z,28.80
2019-05-13T18:25:34.810Z,29.50
2019-05-13T18:28:04.560Z,29.70
2019-05-13T18:30:36.149Z,30.10
2019-05-13T18:33:05.813Z,30.20
2019-05-13T18:35:35.547Z,31.90
2019-05-13T18:38:06.901Z,31.10
2019-05-13T18:40:48.508Z,32.40
2019-05-13T18:43:21.376Z,31.30
2019-05-13T18:45:52.584Z,31.50
2019-05-13T18:48:58.643Z,31.60
2019-05-13T18:51:42.158Z,31.80
2019-05-13T18:54:11.870Z,33.00
2019-05-13T18:57:03.939Z,31.80
2019-05-13T18:59:34.726Z,32.90
2019-05-13T19:02:05.337Z,32.40
2019-05-13T19:04:42.239Z,31.80
2019-05-13T19:07:13.510Z,32.50
2019-05-13T19:09:43.248Z,32.60
2019-05-13T19:12:18.376Z,33.60
2019-05-13T19:14:48.063Z,35.10
2019-05-13T19:17:19.419Z,34.60
2019-05-13T19:20:15.238Z,35.10
2019-05-13T19:22:46.898Z,34.00
2019-05-13T19:25:16.880Z,34.20
2019-05-13T19:27:56.867Z,35.60
2019-05-13T19:30:27.457Z,35.60
2019-05-13T19:32:58.125Z,36.00
2019-05-13T19:35:36.658Z,36.00
2019-05-13T19:38:07.063Z,36.20
2019-05-13T19:40:37.097Z,36.90
2019-05-13T19:43:33.759Z,37.60
2019-05-13T19:46:04.014Z,38.10
2019-05-13T19:48:34.167Z,38.30
2019-05-13T19:51:14.429Z,38.70
2019-05-13T19:54:11.715Z,39.00
2019-05-13T19:57:02.896Z,40.00
2019-05-13T19:59:44.191Z,39.50
2019-05-13T20:02:17.988Z,40.30
2019-05-13T20:05:01.063Z,40.80
2019-05-13T20:07:54.294Z,40.90
2019-05-13T20:10:44.884Z,41.60
2019-05-13T20:13:19.022Z,42.20
2019-05-13T20:15:54.590Z,42.70
2019-05-13T20:18:48.691Z,42.70
2019-05-13T20:21:19.804Z,43.30
2019-05-13T20:23:58.249Z,44.10
2019-05-13T20:26:35.640Z,44.90
2019-05-13T20:29:04.426Z,44.60
2019-05-13T20:31:33.763Z,45.20
2019-05-13T20:34:16.527Z,45.70
2019-05-13T20:36:47.995Z,44.90
2019-05-13T20:39:26.494Z,44.90
2019-05-13T20:42:14.240Z,45.20
2019-05-13T20:44:54.559Z,45.50
2019-05-13T20:47:28.203Z,45.80
2019-05-13T20:50:02.339Z,46.10
2019-05-13T20:52:44.955Z,47.10
2019-05-13T20:58:58.175Z,48.30
2019-05-13T21:07:45.250Z,48.90
2019-05-13T21:13:51.750Z,48.90
2019-05-13T21:16:30.677Z,48.90
2019-05-13T21:19:06.670Z,48.90
2019-05-13T21:21:37.693Z,49.20
2019-05-13T21:24:17.643Z,49.60
2019-05-13T21:26:48.034Z,50.20
2019-05-13T21:29:17.475Z,51.00
2019-05-13T21:34:23.188Z,51.20
2019-05-13T21:36:52.826Z,51.70
2019-05-13T21:39:22.806Z,51.60
2019-05-13T21:41:52.525Z,52.20
2019-05-13T21:44:29.549Z,52.40
2019-05-13T21:47:02.170Z,53.50
2019-05-13T21:49:32.131Z,53.10
2019-05-13T21:52:14.745Z,53.50
2019-05-13T21:54:45.357Z,53.40
2019-05-13T21:57:15.170Z,54.30
2019-05-13T21:59:51.951Z,54.90
2019-05-13T22:02:23.399Z,54.60
2019-05-13T22:04:53.485Z,55.20
2019-05-13T22:07:33.290Z,55.00
2019-05-13T22:10:24.740Z,55.50
2019-05-13T22:12:54.510Z,55.40
2019-05-13T22:15:52.253Z,55.80
2019-05-13T22:18:41.773Z,56.00
2019-05-13T22:21:12.502Z,56.10
2019-05-13T22:23:51.603Z,56.10
2019-05-13T22:26:22.082Z,55.80
2019-05-13T22:28:52.211Z,56.10
2019-05-13T22:31:22.836Z,56.20
2019-05-13T22:33:53.047Z,56.10
2019-05-13T22:36:23.531Z,55.80
2019-05-13T22:39:06.334Z,56.30
2019-05-13T22:41:36.935Z,56.60
2019-05-13T22:44:06.700Z,56.90
2019-05-13T22:47:05.069Z,58.00
2019-05-13T22:49:35.379Z,58.30
2019-05-13T22:52:25.731Z,58.50
2019-05-13T22:55:03.779Z,58.70
2019-05-13T22:57:35.355Z,59.70
2019-05-13T23:00:07.279Z,59.20
2019-05-13T23:02:44.803Z,59.70
2019-05-13T23:05:15.179Z,59.90
2019-05-13T23:07:45.781Z,59.90
2019-05-13T23:10:22.494Z,59.90
2019-05-13T23:12:52.927Z,60.40
2019-05-13T23:15:22.809Z,61.10
2019-05-13T23:17:52.406Z,61.60
2019-05-13T23:20:23.267Z,61.20
2019-05-13T23:22:52.845Z,61.50
2019-05-13T23:25:47.754Z,62.40
2019-05-13T23:28:18.436Z,62.00
2019-05-13T23:30:50.997Z,62.10
2019-05-13T23:33:21.976Z,63.10
2019-05-13T23:36:13.731Z,62.90
2019-05-13T23:38:46.796Z,63.30
2019-05-13T23:41:32.620Z,63.00
2019-05-13T23:44:03.669Z,63.00
2019-05-13T23:49:34.746Z,63.80
2019-05-13T23:52:05.889Z,63.40
2019-05-13T23:54:35.804Z,63.80
2019-05-13T23:57:05.364Z,64.10
2019-05-13T23:59:35.890Z,64.40
